sensor_id;sensor_type;location;lat;lon;timestamp;P1;durP1;ratioP1;P2;durP2;ratioP2
38487;SDS011;57384;51.986;4.458;2023-11-19T00:01:46;52.72;;;50.13;;
38487;SDS011;57384;51.986;4.458;2023-11-19T00:04:41;52.47;;;50.35;;
38487;SDS011;57384;51.986;4.458;2023-11-19T00:11:21;53.00;;;50.35;;
38487;SDS011;57384;51.986;4.458;2023-11-19T00:14:08;51.40;;;49.17;;
38487;SDS011;57384;51.986;4.458;2023-11-19T00:20:33;54.55;;;50.60;;
38487;SDS011;57384;51.986;4.458;2023-11-19T00:23:23;49.92;;;47.92;;
38487;SDS011;57384;51.986;4.458;2023-11-19T00:29:48;52.22;;;49.75;;
38487;SDS011;57384;51.986;4.458;2023-11-19T00:32:38;50.05;;;47.80;;
38487;SDS011;57384;51.986;4.458;2023-11-19T00:35:31;52.25;;;49.95;;
38487;SDS011;57384;51.986;4.458;2023-11-19T00:38:24;48.67;;;46.00;;
38487;SDS011;57384;51.986;4.458;2023-11-19T00:41:18;48.95;;;46.55;;
38487;SDS011;57384;51.986;4.458;2023-11-19T00:44:10;50.72;;;48.17;;
38487;SDS011;57384;51.986;4.458;2023-11-19T00:47:23;50.60;;;48.05;;
38487;SDS011;57384;51.986;4.458;2023-11-19T00:50:36;43.75;;;41.80;;
38487;SDS011;57384;51.986;4.458;2023-11-19T00:53:30;46.72;;;44.38;;
38487;SDS011;57384;51.986;4.458;2023-11-19T00:56:20;49.80;;;47.47;;
38487;SDS011;57384;51.986;4.458;2023-11-19T00:59:07;47.53;;;45.63;;
38487;SDS011;57384;51.986;4.458;2023-11-19T01:02:09;52.13;;;49.65;;
38487;SDS011;57384;51.986;4.458;2023-11-19T01:04:57;50.70;;;48.25;;
38487;SDS011;57384;51.986;4.458;2023-11-19T01:07:50;49.13;;;47.13;;
38487;SDS011;57384;51.986;4.458;2023-11-19T01:10:37;42.88;;;40.97;;
38487;SDS011;57384;51.986;4.458;2023-11-19T01:16:14;38.65;;;36.78;;
38487;SDS011;57384;51.986;4.458;2023-11-19T01:19:12;43.08;;;41.17;;
38487;SDS011;57384;51.986;4.458;2023-11-19T01:22:08;43.70;;;41.80;;
38487;SDS011;57384;51.986;4.458;2023-11-19T01:24:56;40.25;;;38.65;;
38487;SDS011;57384;51.986;4.458;2023-11-19T01:27:48;36.65;;;34.90;;
38487;SDS011;57384;51.986;4.458;2023-11-19T01:30:38;39.42;;;36.95;;
38487;SDS011;57384;51.986;4.458;2023-11-19T01:33:25;39.40;;;37.85;;
38487;SDS011;57384;51.986;4.458;2023-11-19T01:36:15;37.65;;;35.75;;
38487;SDS011;57384;51.986;4.458;2023-11-19T01:39:05;38.40;;;36.78;;
38487;SDS011;57384;51.986;4.458;2023-11-19T01:41:52;38.58;;;36.72;;
38487;SDS011;57384;51.986;4.458;2023-11-19T01:44:42;35.67;;;33.97;;
38487;SDS011;57384;51.986;4.458;2023-11-19T01:48:00;35.20;;;33.30;;
38487;SDS011;57384;51.986;4.458;2023-11-19T01:50:48;33.10;;;31.63;;
38487;SDS011;57384;51.986;4.458;2023-11-19T01:53:54;34.10;;;32.50;;
38487;SDS011;57384;51.986;4.458;2023-11-19T01:57:11;33.72;;;31.27;;
38487;SDS011;57384;51.986;4.458;2023-11-19T02:00:15;32.17;;;30.58;;
38487;SDS011;57384;51.986;4.458;2023-11-19T02:03:06;31.13;;;29.85;;
38487;SDS011;57384;51.986;4.458;2023-11-19T02:06:00;30.00;;;28.83;;
38487;SDS011;57384;51.986;4.458;2023-11-19T02:08:54;29.88;;;28.45;;
38487;SDS011;57384;51.986;4.458;2023-11-19T02:11:47;33.42;;;31.40;;
38487;SDS011;57384;51.986;4.458;2023-11-19T02:14:31;29.25;;;28.13;;
38487;SDS011;57384;51.986;4.458;2023-11-19T02:17:30;31.13;;;29.20;;
38487;SDS011;57384;51.986;4.458;2023-11-19T02:23:01;20.35;;;19.48;;
38487;SDS011;57384;51.986;4.458;2023-11-19T02:25:55;24.33;;;23.23;;
38487;SDS011;57384;51.986;4.458;2023-11-19T02:28:58;21.60;;;20.75;;
38487;SDS011;57384;51.986;4.458;2023-11-19T02:31:45;25.60;;;24.33;;
38487;SDS011;57384;51.986;4.458;2023-11-19T02:34:38;22.30;;;21.48;;
38487;SDS011;57384;51.986;4.458;2023-11-19T02:37:28;22.38;;;21.50;;
38487;SDS011;57384;51.986;4.458;2023-11-19T02:40:12;22.65;;;21.80;;
38487;SDS011;57384;51.986;4.458;2023-11-19T02:42:57;21.52;;;20.75;;
38487;SDS011;57384;51.986;4.458;2023-11-19T02:45:47;21.85;;;21.00;;
38487;SDS011;57384;51.986;4.458;2023-11-19T02:48:39;19.60;;;18.88;;
38487;SDS011;57384;51.986;4.458;2023-11-19T02:54:13;16.30;;;15.40;;
38487;SDS011;57384;51.986;4.458;2023-11-19T02:57:00;18.15;;;17.55;;
38487;SDS011;57384;51.986;4.458;2023-11-19T02:59:45;20.95;;;19.20;;
38487;SDS011;57384;51.986;4.458;2023-11-19T03:02:41;23.88;;;22.55;;
38487;SDS011;57384;51.986;4.458;2023-11-19T03:05:26;19.90;;;19.02;;
38487;SDS011;57384;51.986;4.458;2023-11-19T03:08:14;21.58;;;20.38;;
38487;SDS011;57384;51.986;4.458;2023-11-19T03:11:04;18.90;;;18.23;;
38487;SDS011;57384;51.986;4.458;2023-11-19T03:13:59;22.55;;;21.42;;
38487;SDS011;57384;51.986;4.458;2023-11-19T03:16:49;20.15;;;19.45;;
38487;SDS011;57384;51.986;4.458;2023-11-19T03:19:39;19.85;;;19.15;;
38487;SDS011;57384;51.986;4.458;2023-11-19T03:22:26;22.70;;;20.67;;
38487;SDS011;57384;51.986;4.458;2023-11-19T03:25:12;19.45;;;18.65;;
38487;SDS011;57384;51.986;4.458;2023-11-19T03:27:56;20.98;;;20.02;;
38487;SDS011;57384;51.986;4.458;2023-11-19T03:30:48;20.10;;;19.30;;
38487;SDS011;57384;51.986;4.458;2023-11-19T03:33:35;20.95;;;19.50;;
38487;SDS011;57384;51.986;4.458;2023-11-19T03:36:31;21.33;;;20.25;;
38487;SDS011;57384;51.986;4.458;2023-11-19T03:39:15;19.02;;;17.70;;
38487;SDS011;57384;51.986;4.458;2023-11-19T03:42:06;23.30;;;17.60;;
38487;SDS011;57384;51.986;4.458;2023-11-19T03:44:52;18.10;;;17.40;;
38487;SDS011;57384;51.986;4.458;2023-11-19T03:47:47;18.60;;;17.83;;
38487;SDS011;57384;51.986;4.458;2023-11-19T03:50:32;19.30;;;18.25;;
38487;SDS011;57384;51.986;4.458;2023-11-19T03:53:31;16.75;;;16.15;;
38487;SDS011;57384;51.986;4.458;2023-11-19T03:56:15;17.95;;;17.15;;
38487;SDS011;57384;51.986;4.458;2023-11-19T03:58:59;17.90;;;17.20;;
38487;SDS011;57384;51.986;4.458;2023-11-19T04:04:31;23.58;;;13.18;;
38487;SDS011;57384;51.986;4.458;2023-11-19T04:07:18;17.63;;;16.08;;
38487;SDS011;57384;51.986;4.458;2023-11-19T04:10:05;17.35;;;16.55;;
38487;SDS011;57384;51.986;4.458;2023-11-19T04:12:50;15.60;;;14.38;;
38487;SDS011;57384;51.986;4.458;2023-11-19T04:15:34;14.75;;;14.07;;
38487;SDS011;57384;51.986;4.458;2023-11-19T04:18:21;16.25;;;15.50;;
38487;SDS011;57384;51.986;4.458;2023-11-19T04:21:06;13.75;;;13.18;;
38487;SDS011;57384;51.986;4.458;2023-11-19T04:23:50;16.40;;;15.68;;
38487;SDS011;57384;51.986;4.458;2023-11-19T04:26:34;28.25;;;11.55;;
38487;SDS011;57384;51.986;4.458;2023-11-19T04:29:18;14.10;;;12.23;;
38487;SDS011;57384;51.986;4.458;2023-11-19T04:32:05;11.30;;;10.80;;
38487;SDS011;57384;51.986;4.458;2023-11-19T04:34:53;9.70;;;9.40;;
38487;SDS011;57384;51.986;4.458;2023-11-19T04:37:37;11.13;;;10.63;;
38487;SDS011;57384;51.986;4.458;2023-11-19T04:40:25;10.15;;;9.52;;
38487;SDS011;57384;51.986;4.458;2023-11-19T04:45:59;6.50;;;6.30;;
38487;SDS011;57384;51.986;4.458;2023-11-19T04:48:49;12.75;;;8.70;;
38487;SDS011;57384;51.986;4.458;2023-11-19T04:51:43;14.00;;;10.75;;
38487;SDS011;57384;51.986;4.458;2023-11-19T04:54:29;11.98;;;10.98;;
38487;SDS011;57384;51.986;4.458;2023-11-19T04:57:13;13.27;;;10.90;;
38487;SDS011;57384;51.986;4.458;2023-11-19T04:59:57;10.70;;;10.07;;
38487;SDS011;57384;51.986;4.458;2023-11-19T05:02:42;11.65;;;11.15;;
38487;SDS011;57384;51.986;4.458;2023-11-19T05:05:26;10.18;;;9.68;;
38487;SDS011;57384;51.986;4.458;2023-11-19T05:08:10;7.75;;;7.45;;
38487;SDS011;57384;51.986;4.458;2023-11-19T05:10:55;9.50;;;9.13;;
38487;SDS011;57384;51.986;4.458;2023-11-19T05:13:39;9.93;;;9.52;;
38487;SDS011;57384;51.986;4.458;2023-11-19T05:16:23;9.52;;;9.07;;
38487;SDS011;57384;51.986;4.458;2023-11-19T05:19:16;9.18;;;8.55;;
38487;SDS011;57384;51.986;4.458;2023-11-19T05:22:10;9.00;;;8.38;;
38487;SDS011;57384;51.986;4.458;2023-11-19T05:25:05;9.30;;;8.68;;
38487;SDS011;57384;51.986;4.458;2023-11-19T05:27:49;9.70;;;9.07;;
38487;SDS011;57384;51.986;4.458;2023-11-19T05:30:42;10.13;;;9.32;;
38487;SDS011;57384;51.986;4.458;2023-11-19T05:33:29;9.23;;;8.80;;
38487;SDS011;57384;51.986;4.458;2023-11-19T05:36:13;9.73;;;9.32;;
38487;SDS011;57384;51.986;4.458;2023-11-19T05:39:00;12.93;;;11.05;;
38487;SDS011;57384;51.986;4.458;2023-11-19T05:41:50;11.70;;;10.63;;
38487;SDS011;57384;51.986;4.458;2023-11-19T05:44:34;9.95;;;9.30;;
38487;SDS011;57384;51.986;4.458;2023-11-19T05:47:24;9.45;;;8.93;;
38487;SDS011;57384;51.986;4.458;2023-11-19T05:50:13;6.85;;;6.65;;
38487;SDS011;57384;51.986;4.458;2023-11-19T05:53:00;8.50;;;8.05;;
38487;SDS011;57384;51.986;4.458;2023-11-19T05:55:47;11.70;;;10.85;;
38487;SDS011;57384;51.986;4.458;2023-11-19T05:58:34;8.50;;;7.95;;
38487;SDS011;57384;51.986;4.458;2023-11-19T06:01:21;8.10;;;7.78;;
38487;SDS011;57384;51.986;4.458;2023-11-19T06:04:22;8.10;;;7.70;;
38487;SDS011;57384;51.986;4.458;2023-11-19T06:07:11;7.25;;;6.90;;
38487;SDS011;57384;51.986;4.458;2023-11-19T06:10:01;8.80;;;7.95;;
38487;SDS011;57384;51.986;4.458;2023-11-19T06:12:54;6.68;;;5.90;;
38487;SDS011;57384;51.986;4.458;2023-11-19T06:15:40;5.28;;;5.07;;
38487;SDS011;57384;51.986;4.458;2023-11-19T06:18:29;7.93;;;7.18;;
38487;SDS011;57384;51.986;4.458;2023-11-19T06:21:33;20.92;;;7.60;;
38487;SDS011;57384;51.986;4.458;2023-11-19T06:24:37;5.83;;;5.60;;
38487;SDS011;57384;51.986;4.458;2023-11-19T06:27:25;6.50;;;6.20;;
38487;SDS011;57384;51.986;4.458;2023-11-19T06:30:16;6.45;;;5.97;;
38487;SDS011;57384;51.986;4.458;2023-11-19T06:36:04;8.35;;;7.63;;
38487;SDS011;57384;51.986;4.458;2023-11-19T06:39:08;6.85;;;6.43;;
38487;SDS011;57384;51.986;4.458;2023-11-19T06:41:56;7.10;;;6.68;;
38487;SDS011;57384;51.986;4.458;2023-11-19T06:44:45;6.90;;;6.60;;
38487;SDS011;57384;51.986;4.458;2023-11-19T06:47:39;7.88;;;7.47;;
38487;SDS011;57384;51.986;4.458;2023-11-19T06:50:33;6.70;;;6.40;;
38487;SDS011;57384;51.986;4.458;2023-11-19T06:53:25;20.48;;;8.68;;
38487;SDS011;57384;51.986;4.458;2023-11-19T06:56:36;7.25;;;6.95;;
38487;SDS011;57384;51.986;4.458;2023-11-19T07:13:32;13.45;;;8.90;;
38487;SDS011;57384;51.986;4.458;2023-11-19T07:20:04;8.27;;;7.50;;
38487;SDS011;57384;51.986;4.458;2023-11-19T07:26:09;7.45;;;7.15;;
38487;SDS011;57384;51.986;4.458;2023-11-19T07:42:49;9.18;;;8.40;;
38487;SDS011;57384;51.986;4.458;2023-11-19T07:49:40;9.23;;;8.65;;
38487;SDS011;57384;51.986;4.458;2023-11-19T07:53:05;7.55;;;7.15;;
38487;SDS011;57384;51.986;4.458;2023-11-19T07:59:15;6.93;;;6.65;;
38487;SDS011;57384;51.986;4.458;2023-11-19T08:02:26;8.63;;;8.00;;
38487;SDS011;57384;51.986;4.458;2023-11-19T08:05:20;24.33;;;8.75;;
38487;SDS011;57384;51.986;4.458;2023-11-19T08:08:06;8.52;;;8.15;;
38487;SDS011;57384;51.986;4.458;2023-11-19T08:11:02;9.07;;;8.77;;
38487;SDS011;57384;51.986;4.458;2023-11-19T08:14:00;7.35;;;6.88;;
38487;SDS011;57384;51.986;4.458;2023-11-19T08:17:19;8.43;;;8.02;;
38487;SDS011;57384;51.986;4.458;2023-11-19T08:23:37;7.18;;;6.88;;
38487;SDS011;57384;51.986;4.458;2023-11-19T08:27:09;6.75;;;6.47;;
38487;SDS011;57384;51.986;4.458;2023-11-19T08:29:59;6.22;;;6.03;;
38487;SDS011;57384;51.986;4.458;2023-11-19T08:33:13;8.82;;;8.13;;
38487;SDS011;57384;51.986;4.458;2023-11-19T08:36:00;11.13;;;9.98;;
38487;SDS011;57384;51.986;4.458;2023-11-19T08:39:11;8.68;;;8.25;;
38487;SDS011;57384;51.986;4.458;2023-11-19T08:51:56;7.65;;;7.25;;
38487;SDS011;57384;51.986;4.458;2023-11-19T09:01:56;9.00;;;8.65;;
38487;SDS011;57384;51.986;4.458;2023-11-19T09:04:51;8.55;;;8.15;;
38487;SDS011;57384;51.986;4.458;2023-11-19T09:07:38;8.52;;;8.13;;
38487;SDS011;57384;51.986;4.458;2023-11-19T09:10:27;10.80;;;10.20;;
38487;SDS011;57384;51.986;4.458;2023-11-19T09:16:36;9.07;;;8.57;;
38487;SDS011;57384;51.986;4.458;2023-11-19T09:23:01;10.27;;;9.75;;
38487;SDS011;57384;51.986;4.458;2023-11-19T09:26:13;10.43;;;9.93;;
38487;SDS011;57384;51.986;4.458;2023-11-19T09:29:31;11.90;;;11.18;;
38487;SDS011;57384;51.986;4.458;2023-11-19T09:35:19;11.05;;;10.38;;
38487;SDS011;57384;51.986;4.458;2023-11-19T09:38:18;11.00;;;10.60;;
38487;SDS011;57384;51.986;4.458;2023-11-19T09:41:28;8.23;;;7.90;;
38487;SDS011;57384;51.986;4.458;2023-11-19T09:44:22;7.70;;;7.40;;
38487;SDS011;57384;51.986;4.458;2023-11-19T09:50:38;7.28;;;6.78;;
38487;SDS011;57384;51.986;4.458;2023-11-19T09:53:43;7.35;;;6.78;;
38487;SDS011;57384;51.986;4.458;2023-11-19T09:56:35;8.43;;;7.85;;
38487;SDS011;57384;51.986;4.458;2023-11-19T09:59:44;8.27;;;7.88;;
38487;SDS011;57384;51.986;4.458;2023-11-19T10:02:41;7.55;;;7.15;;
38487;SDS011;57384;51.986;4.458;2023-11-19T10:05:30;5.25;;;5.05;;
38487;SDS011;57384;51.986;4.458;2023-11-19T10:08:17;8.05;;;7.63;;
38487;SDS011;57384;51.986;4.458;2023-11-19T10:11:10;7.03;;;6.13;;
38487;SDS011;57384;51.986;4.458;2023-11-19T10:13:58;6.93;;;6.35;;
38487;SDS011;57384;51.986;4.458;2023-11-19T10:17:02;5.53;;;5.32;;
38487;SDS011;57384;51.986;4.458;2023-11-19T10:19:50;9.82;;;8.93;;
38487;SDS011;57384;51.986;4.458;2023-11-19T10:22:37;8.20;;;7.80;;
38487;SDS011;57384;51.986;4.458;2023-11-19T10:28:25;6.95;;;6.75;;
38487;SDS011;57384;51.986;4.458;2023-11-19T10:31:24;14.52;;;7.03;;
38487;SDS011;57384;51.986;4.458;2023-11-19T10:34:24;8.05;;;7.75;;
38487;SDS011;57384;51.986;4.458;2023-11-19T10:37:09;7.55;;;7.25;;
38487;SDS011;57384;51.986;4.458;2023-11-19T10:40:14;10.40;;;9.50;;
38487;SDS011;57384;51.986;4.458;2023-11-19T10:43:12;7.47;;;7.13;;
38487;SDS011;57384;51.986;4.458;2023-11-19T10:46:09;6.60;;;6.30;;
38487;SDS011;57384;51.986;4.458;2023-11-19T10:49:05;8.02;;;7.72;;
38487;SDS011;57384;51.986;4.458;2023-11-19T10:51:50;10.07;;;9.32;;
38487;SDS011;57384;51.986;4.458;2023-11-19T10:54:42;9.57;;;8.98;;
38487;SDS011;57384;51.986;4.458;2023-11-19T10:57:46;15.23;;;11.85;;
38487;SDS011;57384;51.986;4.458;2023-11-19T11:00:39;11.95;;;11.15;;
38487;SDS011;57384;51.986;4.458;2023-11-19T11:04:01;11.45;;;10.68;;
38487;SDS011;57384;51.986;4.458;2023-11-19T11:06:40;13.35;;;12.45;;
38487;SDS011;57384;51.986;4.458;2023-11-19T11:09:27;12.40;;;11.57;;
38487;SDS011;57384;51.986;4.458;2023-11-19T11:12:18;20.88;;;12.18;;
38487;SDS011;57384;51.986;4.458;2023-11-19T11:15:05;13.60;;;12.75;;
38487;SDS011;57384;51.986;4.458;2023-11-19T11:18:01;11.80;;;11.23;;
38487;SDS011;57384;51.986;4.458;2023-11-19T11:20:52;11.35;;;10.95;;
38487;SDS011;57384;51.986;4.458;2023-11-19T11:40:02;12.57;;;11.65;;
38487;SDS011;57384;51.986;4.458;2023-11-19T11:42:53;10.40;;;8.00;;
38487;SDS011;57384;51.986;4.458;2023-11-19T11:46:14;9.00;;;8.60;;
38487;SDS011;57384;51.986;4.458;2023-11-19T12:10:11;6.00;;;5.60;;
38487;SDS011;57384;51.986;4.458;2023-11-19T12:26:53;4.47;;;4.28;;
38487;SDS011;57384;51.986;4.458;2023-11-19T12:40:28;5.82;;;5.28;;
38487;SDS011;57384;51.986;4.458;2023-11-19T13:11:35;6.88;;;6.47;;
38487;SDS011;57384;51.986;4.458;2023-11-19T13:18:09;7.18;;;5.30;;
38487;SDS011;57384;51.986;4.458;2023-11-19T13:28:05;7.93;;;7.53;;
38487;SDS011;57384;51.986;4.458;2023-11-19T13:31:42;6.38;;;6.07;;
38487;SDS011;57384;51.986;4.458;2023-11-19T13:34:31;18.70;;;7.85;;
38487;SDS011;57384;51.986;4.458;2023-11-19T13:37:48;5.65;;;5.32;;
38487;SDS011;57384;51.986;4.458;2023-11-19T13:42:09;5.25;;;5.05;;
38487;SDS011;57384;51.986;4.458;2023-11-19T13:48:24;6.25;;;5.70;;
38487;SDS011;57384;51.986;4.458;2023-11-19T14:43:04;4.68;;;4.47;;
38487;SDS011;57384;51.986;4.458;2023-11-19T14:46:01;5.72;;;5.20;;
38487;SDS011;57384;51.986;4.458;2023-11-19T14:49:06;4.88;;;4.60;;
38487;SDS011;57384;51.986;4.458;2023-11-19T14:52:03;6.05;;;3.80;;
38487;SDS011;57384;51.986;4.458;2023-11-19T14:55:19;3.95;;;3.75;;
38487;SDS011;57384;51.986;4.458;2023-11-19T14:58:29;4.20;;;4.00;;
38487;SDS011;57384;51.986;4.458;2023-11-19T15:07:41;9.20;;;6.88;;
38487;SDS011;57384;51.986;4.458;2023-11-19T15:10:34;5.30;;;5.07;;
38487;SDS011;57384;51.986;4.458;2023-11-19T15:23:35;7.70;;;7.18;;
38487;SDS011;57384;51.986;4.458;2023-11-19T15:26:57;10.32;;;9.20;;
38487;SDS011;57384;51.986;4.458;2023-11-19T15:29:53;6.47;;;6.18;;
38487;SDS011;57384;51.986;4.458;2023-11-19T15:36:06;7.13;;;6.68;;
38487;SDS011;57384;51.986;4.458;2023-11-19T15:39:03;6.20;;;5.88;;
38487;SDS011;57384;51.986;4.458;2023-11-19T15:41:53;13.02;;;6.53;;
38487;SDS011;57384;51.986;4.458;2023-11-19T15:44:43;7.97;;;7.68;;
38487;SDS011;57384;51.986;4.458;2023-11-19T15:47:27;8.15;;;7.75;;
38487;SDS011;57384;51.986;4.458;2023-11-19T15:50:11;7.90;;;7.60;;
38487;SDS011;57384;51.986;4.458;2023-11-19T15:52:58;7.60;;;7.07;;
38487;SDS011;57384;51.986;4.458;2023-11-19T15:55:54;9.60;;;8.95;;
38487;SDS011;57384;51.986;4.458;2023-11-19T15:58:58;7.78;;;7.47;;
38487;SDS011;57384;51.986;4.458;2023-11-19T16:02:11;7.47;;;7.28;;
38487;SDS011;57384;51.986;4.458;2023-11-19T16:05:21;11.27;;;10.68;;
38487;SDS011;57384;51.986;4.458;2023-11-19T16:11:15;8.75;;;8.25;;
38487;SDS011;57384;51.986;4.458;2023-11-19T16:14:02;8.02;;;7.75;;
38487;SDS011;57384;51.986;4.458;2023-11-19T16:16:51;8.45;;;8.15;;
38487;SDS011;57384;51.986;4.458;2023-11-19T16:19:45;9.88;;;9.38;;
38487;SDS011;57384;51.986;4.458;2023-11-19T16:22:29;9.25;;;8.90;;
38487;SDS011;57384;51.986;4.458;2023-11-19T16:25:15;8.50;;;8.20;;
38487;SDS011;57384;51.986;4.458;2023-11-19T16:28:07;9.45;;;9.05;;
38487;SDS011;57384;51.986;4.458;2023-11-19T16:30:54;9.38;;;8.95;;
38487;SDS011;57384;51.986;4.458;2023-11-19T16:33:38;10.20;;;9.55;;
38487;SDS011;57384;51.986;4.458;2023-11-19T16:36:25;8.05;;;7.82;;
38487;SDS011;57384;51.986;4.458;2023-11-19T16:39:12;8.70;;;8.40;;
38487;SDS011;57384;51.986;4.458;2023-11-19T16:42:02;9.77;;;9.05;;
38487;SDS011;57384;51.986;4.458;2023-11-19T16:44:50;8.73;;;8.43;;
38487;SDS011;57384;51.986;4.458;2023-11-19T16:50:18;6.70;;;6.50;;
38487;SDS011;57384;51.986;4.458;2023-11-19T16:53:03;9.07;;;8.57;;
38487;SDS011;57384;51.986;4.458;2023-11-19T16:55:47;9.32;;;8.80;;
38487;SDS011;57384;51.986;4.458;2023-11-19T16:58:31;10.80;;;10.27;;
38487;SDS011;57384;51.986;4.458;2023-11-19T17:01:15;9.88;;;9.32;;
38487;SDS011;57384;51.986;4.458;2023-11-19T17:03:59;11.93;;;11.20;;
38487;SDS011;57384;51.986;4.458;2023-11-19T17:06:43;12.30;;;11.60;;
38487;SDS011;57384;51.986;4.458;2023-11-19T17:09:27;10.50;;;9.73;;
38487;SDS011;57384;51.986;4.458;2023-11-19T17:12:12;11.70;;;10.82;;
38487;SDS011;57384;51.986;4.458;2023-11-19T17:14:56;13.40;;;10.45;;
38487;SDS011;57384;51.986;4.458;2023-11-19T17:17:41;11.18;;;10.50;;
38487;SDS011;57384;51.986;4.458;2023-11-19T17:20:25;7.78;;;7.57;;
38487;SDS011;57384;51.986;4.458;2023-11-19T17:23:09;11.93;;;11.23;;
38487;SDS011;57384;51.986;4.458;2023-11-19T17:25:53;10.20;;;9.70;;
38487;SDS011;57384;51.986;4.458;2023-11-19T17:28:37;8.65;;;8.35;;
38487;SDS011;57384;51.986;4.458;2023-11-19T17:31:21;10.75;;;9.93;;
38487;SDS011;57384;51.986;4.458;2023-11-19T17:34:05;10.15;;;9.43;;
38487;SDS011;57384;51.986;4.458;2023-11-19T17:36:49;9.63;;;9.07;;
38487;SDS011;57384;51.986;4.458;2023-11-19T17:39:33;8.60;;;8.07;;
38487;SDS011;57384;51.986;4.458;2023-11-19T17:42:17;7.72;;;7.53;;
38487;SDS011;57384;51.986;4.458;2023-11-19T17:45:01;6.95;;;6.72;;
38487;SDS011;57384;51.986;4.458;2023-11-19T17:47:46;9.05;;;8.63;;
38487;SDS011;57384;51.986;4.458;2023-11-19T17:50:30;9.10;;;8.70;;
38487;SDS011;57384;51.986;4.458;2023-11-19T17:53:14;10.07;;;9.25;;
38487;SDS011;57384;51.986;4.458;2023-11-19T17:55:58;8.55;;;8.25;;
38487;SDS011;57384;51.986;4.458;2023-11-19T17:58:42;6.07;;;5.88;;
38487;SDS011;57384;51.986;4.458;2023-11-19T18:01:26;9.93;;;9.13;;
38487;SDS011;57384;51.986;4.458;2023-11-19T18:04:10;8.88;;;8.18;;
38487;SDS011;57384;51.986;4.458;2023-11-19T18:06:54;10.85;;;9.70;;
38487;SDS011;57384;51.986;4.458;2023-11-19T18:09:39;7.13;;;6.93;;
38487;SDS011;57384;51.986;4.458;2023-11-19T18:12:23;9.45;;;8.77;;
38487;SDS011;57384;51.986;4.458;2023-11-19T18:15:07;8.88;;;8.60;;
38487;SDS011;57384;51.986;4.458;2023-11-19T18:17:51;12.18;;;11.68;;
38487;SDS011;57384;51.986;4.458;2023-11-19T18:20:35;12.13;;;11.52;;
38487;SDS011;57384;51.986;4.458;2023-11-19T18:23:19;9.43;;;9.13;;
38487;SDS011;57384;51.986;4.458;2023-11-19T18:26:04;8.98;;;8.68;;
38487;SDS011;57384;51.986;4.458;2023-11-19T18:28:48;10.45;;;10.07;;
38487;SDS011;57384;51.986;4.458;2023-11-19T18:31:32;10.80;;;10.40;;
38487;SDS011;57384;51.986;4.458;2023-11-19T18:34:16;11.25;;;10.63;;
38487;SDS011;57384;51.986;4.458;2023-11-19T18:37:00;12.20;;;11.48;;
38487;SDS011;57384;51.986;4.458;2023-11-19T18:39:44;12.70;;;12.10;;
38487;SDS011;57384;51.986;4.458;2023-11-19T18:42:28;14.48;;;13.60;;
38487;SDS011;57384;51.986;4.458;2023-11-19T18:45:15;11.77;;;11.38;;
38487;SDS011;57384;51.986;4.458;2023-11-19T18:47:59;12.80;;;11.98;;
38487;SDS011;57384;51.986;4.458;2023-11-19T18:50:43;12.57;;;12.07;;
38487;SDS011;57384;51.986;4.458;2023-11-19T18:53:28;13.45;;;12.75;;
38487;SDS011;57384;51.986;4.458;2023-11-19T18:56:12;11.85;;;11.45;;
38487;SDS011;57384;51.986;4.458;2023-11-19T18:58:56;18.85;;;14.98;;
38487;SDS011;57384;51.986;4.458;2023-11-19T19:01:40;12.00;;;11.18;;
38487;SDS011;57384;51.986;4.458;2023-11-19T19:04:24;10.88;;;10.52;;
38487;SDS011;57384;51.986;4.458;2023-11-19T19:07:08;13.70;;;13.10;;
38487;SDS011;57384;51.986;4.458;2023-11-19T19:09:52;11.80;;;11.40;;
38487;SDS011;57384;51.986;4.458;2023-11-19T19:12:36;11.40;;;11.00;;
38487;SDS011;57384;51.986;4.458;2023-11-19T19:15:20;12.57;;;11.98;;
38487;SDS011;57384;51.986;4.458;2023-11-19T19:18:04;21.13;;;12.60;;
38487;SDS011;57384;51.986;4.458;2023-11-19T19:20:55;10.73;;;10.43;;
38487;SDS011;57384;51.986;4.458;2023-11-19T19:23:42;13.23;;;12.52;;
38487;SDS011;57384;51.986;4.458;2023-11-19T19:26:26;11.38;;;10.73;;
38487;SDS011;57384;51.986;4.458;2023-11-19T19:29:11;10.05;;;9.70;;
38487;SDS011;57384;51.986;4.458;2023-11-19T19:31:58;11.90;;;11.30;;
38487;SDS011;57384;51.986;4.458;2023-11-19T19:34:42;11.50;;;10.70;;
38487;SDS011;57384;51.986;4.458;2023-11-19T19:37:35;10.38;;;9.75;;
38487;SDS011;57384;51.986;4.458;2023-11-19T19:40:20;9.80;;;9.18;;
38487;SDS011;57384;51.986;4.458;2023-11-19T19:43:04;7.95;;;7.75;;
38487;SDS011;57384;51.986;4.458;2023-11-19T19:45:48;7.93;;;7.63;;
38487;SDS011;57384;51.986;4.458;2023-11-19T19:48:32;20.30;;;9.73;;
38487;SDS011;57384;51.986;4.458;2023-11-19T19:51:16;8.07;;;7.78;;
38487;SDS011;57384;51.986;4.458;2023-11-19T19:54:03;10.32;;;9.80;;
38487;SDS011;57384;51.986;4.458;2023-11-19T19:56:47;9.07;;;8.63;;
38487;SDS011;57384;51.986;4.458;2023-11-19T19:59:31;7.93;;;7.63;;
38487;SDS011;57384;51.986;4.458;2023-11-19T20:02:16;8.30;;;7.80;;
38487;SDS011;57384;51.986;4.458;2023-11-19T20:05:06;8.40;;;8.10;;
38487;SDS011;57384;51.986;4.458;2023-11-19T20:07:51;7.65;;;7.43;;
38487;SDS011;57384;51.986;4.458;2023-11-19T20:10:45;8.95;;;8.55;;
38487;SDS011;57384;51.986;4.458;2023-11-19T20:13:29;8.55;;;8.25;;
38487;SDS011;57384;51.986;4.458;2023-11-19T20:16:16;9.95;;;8.63;;
38487;SDS011;57384;51.986;4.458;2023-11-19T20:19:07;8.02;;;7.72;;
38487;SDS011;57384;51.986;4.458;2023-11-19T20:21:51;8.55;;;8.02;;
38487;SDS011;57384;51.986;4.458;2023-11-19T20:24:35;9.48;;;8.85;;
38487;SDS011;57384;51.986;4.458;2023-11-19T20:27:19;9.57;;;9.18;;
38487;SDS011;57384;51.986;4.458;2023-11-19T20:30:03;11.90;;;10.75;;
38487;SDS011;57384;51.986;4.458;2023-11-19T20:32:54;7.90;;;7.60;;
38487;SDS011;57384;51.986;4.458;2023-11-19T20:35:38;10.15;;;9.68;;
38487;SDS011;57384;51.986;4.458;2023-11-19T20:38:22;7.93;;;7.63;;
38487;SDS011;57384;51.986;4.458;2023-11-19T20:41:12;9.38;;;8.98;;
38487;SDS011;57384;51.986;4.458;2023-11-19T20:46:46;11.50;;;7.45;;
38487;SDS011;57384;51.986;4.458;2023-11-19T20:49:50;6.45;;;6.25;;
38487;SDS011;57384;51.986;4.458;2023-11-19T20:52:54;9.10;;;8.32;;
38487;SDS011;57384;51.986;4.458;2023-11-19T20:55:39;9.73;;;7.18;;
38487;SDS011;57384;51.986;4.458;2023-11-19T20:58:29;7.03;;;6.82;;
38487;SDS011;57384;51.986;4.458;2023-11-19T21:01:18;10.20;;;9.30;;
38487;SDS011;57384;51.986;4.458;2023-11-19T21:04:05;7.00;;;6.70;;
38487;SDS011;57384;51.986;4.458;2023-11-19T21:07:00;6.55;;;6.35;;
38487;SDS011;57384;51.986;4.458;2023-11-19T21:10:03;8.40;;;7.95;;
38487;SDS011;57384;51.986;4.458;2023-11-19T21:12:48;5.63;;;5.43;;
38487;SDS011;57384;51.986;4.458;2023-11-19T21:15:35;7.57;;;6.90;;
38487;SDS011;57384;51.986;4.458;2023-11-19T21:18:25;6.80;;;6.50;;
38487;SDS011;57384;51.986;4.458;2023-11-19T21:21:18;7.68;;;7.28;;
38487;SDS011;57384;51.986;4.458;2023-11-19T21:24:08;6.47;;;6.28;;
38487;SDS011;57384;51.986;4.458;2023-11-19T21:26:58;6.43;;;6.22;;
38487;SDS011;57384;51.986;4.458;2023-11-19T21:29:51;6.13;;;5.93;;
38487;SDS011;57384;51.986;4.458;2023-11-19T21:32:41;7.10;;;6.85;;
38487;SDS011;57384;51.986;4.458;2023-11-19T21:35:25;6.93;;;6.63;;
38487;SDS011;57384;51.986;4.458;2023-11-19T21:38:11;7.03;;;6.72;;
38487;SDS011;57384;51.986;4.458;2023-11-19T21:41:01;7.68;;;7.18;;
38487;SDS011;57384;51.986;4.458;2023-11-19T21:46:54;6.13;;;5.93;;
38487;SDS011;57384;51.986;4.458;2023-11-19T21:53:01;5.83;;;5.63;;
38487;SDS011;57384;51.986;4.458;2023-11-19T21:55:51;6.55;;;6.25;;